This is the latest recevied weather packets stored in our database for station/object KC5DAQ-22. If no packets are shown the sender has not sent any weather packets the latest 10 day(s).
| Time | Temp. | Humidity | Pressure | Rain* | Wind** | Luminosity | Snow |
|---|---|---|---|---|---|---|---|
| 1777671243 | 16.11° C | 96% | 1009.5 hPa | 4.06 mm | - | 26 W/m² | - |
| 1777671184 | 16.11° C | 96% | 1009.6 hPa | 3.81 mm | - | 19 W/m² | - |
| 1777671123 | 16.11° C | 96% | 1009.6 hPa | 3.81 mm | - | 16 W/m² | - |
| 1777671065 | 16.11° C | 96% | 1009.6 hPa | 4.06 mm | - | 14 W/m² | - |
| 1777671004 | 16.11° C | 96% | 1009.6 hPa | 4.32 mm | - | 11 W/m² | - |
| 1777670944 | 16.11° C | 96% | 1009.6 hPa | 4.06 mm | - | 11 W/m² | - |
| 1777670884 | 16.11° C | 96% | 1009.6 hPa | 4.06 mm | - | 11 W/m² | - |
| 1777670823 | 16.11° C | 96% | 1009.6 hPa | 4.06 mm | - | 9 W/m² | - |
| 1777670764 | 16.11° C | 96% | 1009.5 hPa | 4.06 mm | - | 9 W/m² | - |
| 1777670704 | 16.11° C | 96% | 1009.4 hPa | 4.06 mm | - | 9 W/m² | - |
| 1777670644 | 16.11° C | 96% | 1009.3 hPa | 4.06 mm | - | 9 W/m² | - |
| 1777670584 | 16.11° C | 96% | 1009.1 hPa | 4.06 mm | - | 7 W/m² | - |
| 1777670523 | 16.11° C | 96% | 1009 hPa | 4.32 mm | - | 9 W/m² | - |
| 1777670464 | 16.11° C | 96% | 1008.9 hPa | 4.32 mm | - | 11 W/m² | - |
| 1777670404 | 16.11° C | 96% | 1008.7 hPa | 4.32 mm | - | 12 W/m² | - |
| 1777670343 | 16.11° C | 96% | 1008.5 hPa | 4.32 mm | - | 14 W/m² | - |
| 1777670283 | 16.11° C | 96% | 1008.4 hPa | 4.32 mm | - | 12 W/m² | - |
| 1777670223 | 16.11° C | 96% | 1008.2 hPa | 4.32 mm | - | 18 W/m² | - |
| 1777670163 | 16.11° C | 96% | 1008.2 hPa | 4.32 mm | - | 19 W/m² | - |
| 1777670103 | 16.11° C | 96% | 1008.1 hPa | 4.32 mm | - | 21 W/m² | - |
| 1777670044 | 16.11° C | 96% | 1008.1 hPa | 4.57 mm | - | 21 W/m² | - |
| 1777669982 | 16.11° C | 96% | 1008.2 hPa | 4.57 mm | - | 21 W/m² | - |
| 1777669923 | 16.11° C | 96% | 1008.2 hPa | 4.32 mm | - | 16 W/m² | - |
| 1777669863 | 16.11° C | 96% | 1008.3 hPa | 4.32 mm | - | 12 W/m² | - |
| 1777669803 | 16.11° C | 96% | 1008.3 hPa | 4.32 mm | - | 12 W/m² | - |
* Rain latest hour (hover to see other rain measurements)
** Current wind speed in m/s (hover to see current wind gust speed)